sensor_id;sensor_type;location;lat;lon;timestamp;pressure;altitude;pressure_sealevel;temperature;humidity
58843;BME280;44614;54.356;10.100;2023-08-24T00:01:25;101644.91;;;16.08;97.65
58843;BME280;44614;54.356;10.100;2023-08-24T00:03:51;101647.91;;;16.06;97.74
58843;BME280;44614;54.356;10.100;2023-08-24T00:06:18;101652.00;;;16.04;97.53
58843;BME280;44614;54.356;10.100;2023-08-24T00:08:43;101646.34;;;15.99;97.73
58843;BME280;44614;54.356;10.100;2023-08-24T00:11:09;101647.66;;;15.96;97.75
58843;BME280;44614;54.356;10.100;2023-08-24T00:13:36;101643.44;;;15.94;97.84
58843;BME280;44614;54.356;10.100;2023-08-24T00:16:02;101646.66;;;15.91;98.01
58843;BME280;44614;54.356;10.100;2023-08-24T00:18:27;101642.47;;;15.88;98.06
58843;BME280;44614;54.356;10.100;2023-08-24T00:20:52;101642.94;;;15.85;98.10
58843;BME280;44614;54.356;10.100;2023-08-24T00:23:18;101642.31;;;15.83;98.27
58843;BME280;44614;54.356;10.100;2023-08-24T00:25:43;101643.66;;;15.80;98.13
58843;BME280;44614;54.356;10.100;2023-08-24T00:28:08;101644.97;;;15.78;98.29
58843;BME280;44614;54.356;10.100;2023-08-24T00:30:34;101637.13;;;15.75;98.24
58843;BME280;44614;54.356;10.100;2023-08-24T00:32:59;101641.25;;;15.72;98.32
58843;BME280;44614;54.356;10.100;2023-08-24T00:35:26;101629.56;;;15.70;98.37
58843;BME280;44614;54.356;10.100;2023-08-24T00:37:51;101643.88;;;15.67;98.27
58843;BME280;44614;54.356;10.100;2023-08-24T00:40:16;101635.81;;;15.66;98.18
58843;BME280;44614;54.356;10.100;2023-08-24T00:42:42;101632.38;;;15.64;98.24
58843;BME280;44614;54.356;10.100;2023-08-24T00:45:08;101626.47;;;15.60;98.25
58843;BME280;44614;54.356;10.100;2023-08-24T00:47:34;101626.13;;;15.56;98.40
58843;BME280;44614;54.356;10.100;2023-08-24T00:50:00;101632.16;;;15.53;98.29
58843;BME280;44614;54.356;10.100;2023-08-24T00:52:25;101628.75;;;15.51;98.31
58843;BME280;44614;54.356;10.100;2023-08-24T00:54:53;101636.09;;;15.46;98.41
58843;BME280;44614;54.356;10.100;2023-08-24T00:57:19;101636.56;;;15.43;98.52
58843;BME280;44614;54.356;10.100;2023-08-24T00:59:44;101638.72;;;15.41;98.62
58843;BME280;44614;54.356;10.100;2023-08-24T01:02:10;101642.81;;;15.38;98.58
58843;BME280;44614;54.356;10.100;2023-08-24T01:04:36;101640.50;;;15.35;98.67
58843;BME280;44614;54.356;10.100;2023-08-24T01:07:01;101642.91;;;15.31;98.70
58843;BME280;44614;54.356;10.100;2023-08-24T01:09:28;101646.97;;;15.29;98.86
58843;BME280;44614;54.356;10.100;2023-08-24T01:12:02;101641.06;;;15.25;98.97
58843;BME280;44614;54.356;10.100;2023-08-24T01:14:32;101642.16;;;15.24;99.22
58843;BME280;44614;54.356;10.100;2023-08-24T01:16:59;101649.00;;;15.22;99.26
58843;BME280;44614;54.356;10.100;2023-08-24T01:19:46;101636.50;;;15.19;99.50
58843;BME280;44614;54.356;10.100;2023-08-24T01:24:47;101639.09;;;15.14;99.54
58843;BME280;44614;54.356;10.100;2023-08-24T01:27:13;101641.47;;;15.10;99.67
58843;BME280;44614;54.356;10.100;2023-08-24T01:29:40;101645.56;;;15.08;99.36
58843;BME280;44614;54.356;10.100;2023-08-24T01:32:09;101647.97;;;15.04;99.69
58843;BME280;44614;54.356;10.100;2023-08-24T01:34:36;101651.19;;;15.01;99.86
58843;BME280;44614;54.356;10.100;2023-08-24T01:37:01;101651.44;;;15.00;100.00
58843;BME280;44614;54.356;10.100;2023-08-24T01:39:37;101651.06;;;14.96;100.00
58843;BME280;44614;54.356;10.100;2023-08-24T01:42:06;101649.59;;;14.94;99.95
58843;BME280;44614;54.356;10.100;2023-08-24T01:44:35;101648.50;;;14.95;100.00
58843;BME280;44614;54.356;10.100;2023-08-24T01:47:02;101645.16;;;14.93;100.00
58843;BME280;44614;54.356;10.100;2023-08-24T01:49:28;101641.75;;;14.91;100.00
58843;BME280;44614;54.356;10.100;2023-08-24T01:51:54;101647.53;;;14.89;100.00
58843;BME280;44614;54.356;10.100;2023-08-24T01:54:21;101639.44;;;14.87;100.00
58843;BME280;44614;54.356;10.100;2023-08-24T01:56:47;101638.00;;;14.85;100.00
58843;BME280;44614;54.356;10.100;2023-08-24T01:59:13;101636.53;;;14.82;100.00
58843;BME280;44614;54.356;10.100;2023-08-24T02:01:38;101638.69;;;14.80;100.00
58843;BME280;44614;54.356;10.100;2023-08-24T02:04:03;101639.16;;;14.77;100.00
58843;BME280;44614;54.356;10.100;2023-08-24T02:06:29;101641.31;;;14.75;100.00
58843;BME280;44614;54.356;10.100;2023-08-24T02:08:54;101646.25;;;14.73;100.00
58843;BME280;44614;54.356;10.100;2023-08-24T02:11:19;101639.00;;;14.72;100.00
58843;BME280;44614;54.356;10.100;2023-08-24T02:13:44;101637.78;;;14.68;100.00
58843;BME280;44614;54.356;10.100;2023-08-24T02:16:10;101626.13;;;14.66;100.00
58843;BME280;44614;54.356;10.100;2023-08-24T02:18:36;101625.50;;;14.64;100.00
58843;BME280;44614;54.356;10.100;2023-08-24T02:21:09;101634.88;;;14.63;100.00
58843;BME280;44614;54.356;10.100;2023-08-24T02:23:36;101640.63;;;14.61;100.00
58843;BME280;44614;54.356;10.100;2023-08-24T02:26:02;101639.38;;;14.57;100.00
58843;BME280;44614;54.356;10.100;2023-08-24T02:28:28;101635.19;;;14.55;100.00
58843;BME280;44614;54.356;10.100;2023-08-24T02:30:53;101635.63;;;14.52;100.00
58843;BME280;44614;54.356;10.100;2023-08-24T02:33:19;101633.13;;;14.50;100.00
58843;BME280;44614;54.356;10.100;2023-08-24T02:35:46;101632.25;;;14.50;100.00
58843;BME280;44614;54.356;10.100;2023-08-24T02:38:12;101626.31;;;14.46;100.00
58843;BME280;44614;54.356;10.100;2023-08-24T02:40:37;101622.94;;;14.44;100.00
58843;BME280;44614;54.356;10.100;2023-08-24T02:43:03;101623.38;;;14.41;100.00
58843;BME280;44614;54.356;10.100;2023-08-24T02:45:28;101624.47;;;14.40;100.00
58843;BME280;44614;54.356;10.100;2023-08-24T02:47:54;101621.06;;;14.38;100.00
58843;BME280;44614;54.356;10.100;2023-08-24T02:50:19;101614.13;;;14.35;100.00
58843;BME280;44614;54.356;10.100;2023-08-24T02:52:44;101612.88;;;14.31;100.00
58843;BME280;44614;54.356;10.100;2023-08-24T02:55:11;101614.19;;;14.29;100.00
58843;BME280;44614;54.356;10.100;2023-08-24T02:57:36;101620.53;;;14.29;100.00
58843;BME280;44614;54.356;10.100;2023-08-24T03:00:02;101628.22;;;14.27;100.00
58843;BME280;44614;54.356;10.100;2023-08-24T03:02:28;101617.00;;;14.22;100.00
58843;BME280;44614;54.356;10.100;2023-08-24T03:04:54;101618.53;;;14.18;100.00
58843;BME280;44614;54.356;10.100;2023-08-24T03:07:20;101612.41;;;14.16;100.00
58843;BME280;44614;54.356;10.100;2023-08-24T03:09:46;101620.69;;;14.16;100.00
58843;BME280;44614;54.356;10.100;2023-08-24T03:12:11;101621.75;;;14.15;100.00
58843;BME280;44614;54.356;10.100;2023-08-24T03:14:37;101616.69;;;14.12;100.00
58843;BME280;44614;54.356;10.100;2023-08-24T03:17:02;101614.38;;;14.09;100.00
58843;BME280;44614;54.356;10.100;2023-08-24T03:19:29;101608.22;;;14.07;100.00
58843;BME280;44614;54.356;10.100;2023-08-24T03:21:55;101613.16;;;14.05;100.00
58843;BME280;44614;54.356;10.100;2023-08-24T03:24:20;101605.91;;;14.04;100.00
58843;BME280;44614;54.356;10.100;2023-08-24T03:26:46;101605.31;;;14.02;100.00
58843;BME280;44614;54.356;10.100;2023-08-24T03:29:11;101602.78;;;14.00;100.00
58843;BME280;44614;54.356;10.100;2023-08-24T03:31:36;101616.81;;;13.99;100.00
58843;BME280;44614;54.356;10.100;2023-08-24T03:34:01;101620.03;;;13.96;100.00
58843;BME280;44614;54.356;10.100;2023-08-24T03:36:29;101620.47;;;13.93;100.00
58843;BME280;44614;54.356;10.100;2023-08-24T03:38:54;101619.63;;;13.92;100.00
58843;BME280;44614;54.356;10.100;2023-08-24T03:41:19;101620.09;;;13.89;100.00
58843;BME280;44614;54.356;10.100;2023-08-24T03:43:45;101614.19;;;13.85;100.00
58843;BME280;44614;54.356;10.100;2023-08-24T03:46:10;101613.78;;;13.82;100.00
58843;BME280;44614;54.356;10.100;2023-08-24T03:48:35;101603.81;;;13.81;100.00
58843;BME280;44614;54.356;10.100;2023-08-24T03:51:01;101603.41;;;13.77;100.00
58843;BME280;44614;54.356;10.100;2023-08-24T03:53:26;101619.13;;;13.77;100.00
58843;BME280;44614;54.356;10.100;2023-08-24T03:55:52;101611.94;;;13.76;100.00
58843;BME280;44614;54.356;10.100;2023-08-24T03:58:19;101608.16;;;13.70;100.00
58843;BME280;44614;54.356;10.100;2023-08-24T04:00:44;101601.41;;;13.66;100.00
58843;BME280;44614;54.356;10.100;2023-08-24T04:03:10;101603.28;;;13.65;100.00
58843;BME280;44614;54.356;10.100;2023-08-24T04:05:36;101599.69;;;13.65;100.00
58843;BME280;44614;54.356;10.100;2023-08-24T04:08:01;101594.41;;;13.63;100.00
58843;BME280;44614;54.356;10.100;2023-08-24T04:10:27;101601.22;;;13.61;100.00
58843;BME280;44614;54.356;10.100;2023-08-24T04:12:53;101602.06;;;13.61;100.00
58843;BME280;44614;54.356;10.100;2023-08-24T04:15:19;101592.78;;;13.56;100.00
58843;BME280;44614;54.356;10.100;2023-08-24T04:17:44;101588.53;;;13.53;100.00
58843;BME280;44614;54.356;10.100;2023-08-24T04:20:10;101597.06;;;13.52;100.00
58843;BME280;44614;54.356;10.100;2023-08-24T04:22:36;101597.06;;;13.52;100.00
58843;BME280;44614;54.356;10.100;2023-08-24T04:25:01;101589.84;;;13.51;100.00
58843;BME280;44614;54.356;10.100;2023-08-24T04:27:27;101593.66;;;13.50;100.00
58843;BME280;44614;54.356;10.100;2023-08-24T04:29:52;101594.75;;;13.49;100.00
58843;BME280;44614;54.356;10.100;2023-08-24T04:32:18;101593.06;;;13.48;100.00
58843;BME280;44614;54.356;10.100;2023-08-24T04:34:43;101595.59;;;13.49;100.00
58843;BME280;44614;54.356;10.100;2023-08-24T04:37:09;101589.47;;;13.47;100.00
58843;BME280;44614;54.356;10.100;2023-08-24T04:39:34;101594.09;;;13.47;100.00
58843;BME280;44614;54.356;10.100;2023-08-24T04:42:00;101580.09;;;13.48;100.00
58843;BME280;44614;54.356;10.100;2023-08-24T04:44:25;101592.81;;;13.49;100.00
58843;BME280;44614;54.356;10.100;2023-08-24T04:46:50;101593.66;;;13.50;100.00
58843;BME280;44614;54.356;10.100;2023-08-24T04:49:16;101593.66;;;13.50;100.00
58843;BME280;44614;54.356;10.100;2023-08-24T04:51:41;101596.22;;;13.51;100.00
58843;BME280;44614;54.356;10.100;2023-08-24T04:54:06;101598.13;;;13.51;100.00
58843;BME280;44614;54.356;10.100;2023-08-24T04:56:31;101595.38;;;13.51;100.00
58843;BME280;44614;54.356;10.100;2023-08-24T04:58:58;101599.81;;;13.52;100.00
58843;BME280;44614;54.356;10.100;2023-08-24T05:01:25;101599.19;;;13.50;100.00
58843;BME280;44614;54.356;10.100;2023-08-24T05:03:51;101598.13;;;13.51;100.00
58843;BME280;44614;54.356;10.100;2023-08-24T05:06:17;101599.19;;;13.50;100.00
58843;BME280;44614;54.356;10.100;2023-08-24T05:08:42;101599.81;;;13.52;100.00
58843;BME280;44614;54.356;10.100;2023-08-24T05:11:26;101603.19;;;13.54;100.00
58843;BME280;44614;54.356;10.100;2023-08-24T05:13:54;101602.13;;;13.55;100.00
58843;BME280;44614;54.356;10.100;2023-08-24T05:16:22;101607.19;;;13.58;100.00
58843;BME280;44614;54.356;10.100;2023-08-24T05:18:47;101610.56;;;13.60;100.00
58843;BME280;44614;54.356;10.100;2023-08-24T05:21:13;101602.06;;;13.61;100.00
58843;BME280;44614;54.356;10.100;2023-08-24T05:23:38;101607.97;;;13.65;100.00
58843;BME280;44614;54.356;10.100;2023-08-24T05:26:04;101611.97;;;13.69;100.00
58843;BME280;44614;54.356;10.100;2023-08-24T05:28:30;101619.81;;;13.72;100.00
58843;BME280;44614;54.356;10.100;2023-08-24T05:30:56;101622.72;;;13.77;100.00
58843;BME280;44614;54.356;10.100;2023-08-24T05:33:21;101616.31;;;13.83;100.00
58843;BME280;44614;54.356;10.100;2023-08-24T05:35:47;101613.50;;;13.90;100.00
58843;BME280;44614;54.356;10.100;2023-08-24T05:38:13;101607.44;;;14.00;100.00
58843;BME280;44614;54.356;10.100;2023-08-24T05:40:39;101607.53;;;14.11;100.00
58843;BME280;44614;54.356;10.100;2023-08-24T05:43:04;101609.56;;;14.23;100.00
58843;BME280;44614;54.356;10.100;2023-08-24T05:45:30;101610.28;;;14.36;100.00
58843;BME280;44614;54.356;10.100;2023-08-24T05:47:55;101619.28;;;14.50;100.00
58843;BME280;44614;54.356;10.100;2023-08-24T05:50:21;101611.06;;;14.62;100.00
58843;BME280;44614;54.356;10.100;2023-08-24T05:52:46;101606.00;;;14.77;100.00
58843;BME280;44614;54.356;10.100;2023-08-24T05:55:11;101618.16;;;14.88;100.00
58843;BME280;44614;54.356;10.100;2023-08-24T05:57:37;101616.53;;;14.99;100.00
58843;BME280;44614;54.356;10.100;2023-08-24T06:00:03;101625.97;;;15.09;100.00
58843;BME280;44614;54.356;10.100;2023-08-24T06:02:37;101618.78;;;15.20;100.00
58843;BME280;44614;54.356;10.100;2023-08-24T06:05:03;101619.69;;;15.32;100.00
58843;BME280;44614;54.356;10.100;2023-08-24T06:07:29;101620.19;;;15.41;100.00
58843;BME280;44614;54.356;10.100;2023-08-24T06:09:55;101623.84;;;15.53;100.00
58843;BME280;44614;54.356;10.100;2023-08-24T06:12:21;101622.16;;;15.64;100.00
58843;BME280;44614;54.356;10.100;2023-08-24T06:14:46;101622.47;;;15.74;100.00
58843;BME280;44614;54.356;10.100;2023-08-24T06:17:11;101629.94;;;15.86;100.00
58843;BME280;44614;54.356;10.100;2023-08-24T06:19:37;101624.66;;;15.96;100.00
58843;BME280;44614;54.356;10.100;2023-08-24T06:22:02;101615.00;;;16.10;100.00
58843;BME280;44614;54.356;10.100;2023-08-24T06:24:27;101610.31;;;16.22;100.00
58843;BME280;44614;54.356;10.100;2023-08-24T06:26:52;101600.91;;;16.35;100.00
58843;BME280;44614;54.356;10.100;2023-08-24T06:29:18;101599.69;;;16.43;100.00
58843;BME280;44614;54.356;10.100;2023-08-24T06:31:43;101594.72;;;16.56;100.00
58843;BME280;44614;54.356;10.100;2023-08-24T06:34:08;101590.47;;;16.66;100.00
58843;BME280;44614;54.356;10.100;2023-08-24T06:36:34;101594.56;;;16.75;100.00
58843;BME280;44614;54.356;10.100;2023-08-24T06:38:59;101594.78;;;16.85;100.00
58843;BME280;44614;54.356;10.100;2023-08-24T06:41:24;101584.81;;;17.01;100.00
58843;BME280;44614;54.356;10.100;2023-08-24T06:43:50;101578.22;;;17.19;100.00
58843;BME280;44614;54.356;10.100;2023-08-24T06:46:15;101585.56;;;17.42;100.00
58843;BME280;44614;54.356;10.100;2023-08-24T06:48:40;101587.53;;;17.58;100.00
58843;BME280;44614;54.356;10.100;2023-08-24T06:51:08;101583.19;;;17.79;100.00
58843;BME280;44614;54.356;10.100;2023-08-24T06:53:33;101592.94;;;17.98;100.00
58843;BME280;44614;54.356;10.100;2023-08-24T06:56:00;101581.00;;;18.20;100.00
58843;BME280;44614;54.356;10.100;2023-08-24T06:58:25;101588.72;;;18.35;100.00
58843;BME280;44614;54.356;10.100;2023-08-24T07:00:50;101586.41;;;18.48;98.90
58843;BME280;44614;54.356;10.100;2023-08-24T07:03:16;101585.00;;;18.68;98.25
58843;BME280;44614;54.356;10.100;2023-08-24T07:05:42;101578.16;;;18.75;95.17
58843;BME280;44614;54.356;10.100;2023-08-24T07:08:07;101581.63;;;18.88;95.10
58843;BME280;44614;54.356;10.100;2023-08-24T07:10:33;101570.69;;;19.03;94.68
58843;BME280;44614;54.356;10.100;2023-08-24T07:12:58;101569.13;;;19.12;93.81
58843;BME280;44614;54.356;10.100;2023-08-24T07:15:23;101560.28;;;19.20;92.09
58843;BME280;44614;54.356;10.100;2023-08-24T07:17:49;101560.75;;;19.39;90.69
58843;BME280;44614;54.356;10.100;2023-08-24T07:20:14;101560.03;;;19.54;89.37
58843;BME280;44614;54.356;10.100;2023-08-24T07:22:40;101560.75;;;19.71;88.79
58843;BME280;44614;54.356;10.100;2023-08-24T07:25:05;101553.13;;;19.94;89.00
58843;BME280;44614;54.356;10.100;2023-08-24T07:27:34;101556.59;;;20.11;86.49
58843;BME280;44614;54.356;10.100;2023-08-24T07:30:00;101552.47;;;20.24;85.45
58843;BME280;44614;54.356;10.100;2023-08-24T07:32:28;101553.59;;;20.23;81.75
58843;BME280;44614;54.356;10.100;2023-08-24T07:34:54;101552.44;;;20.19;80.59
58843;BME280;44614;54.356;10.100;2023-08-24T07:37:20;101557.56;;;19.95;81.25
58843;BME280;44614;54.356;10.100;2023-08-24T07:39:45;101546.94;;;19.87;82.84
58843;BME280;44614;54.356;10.100;2023-08-24T07:42:10;101552.50;;;19.87;82.93
58843;BME280;44614;54.356;10.100;2023-08-24T07:44:35;101556.53;;;20.06;85.02
58843;BME280;44614;54.356;10.100;2023-08-24T07:47:01;101557.81;;;20.31;83.33
58843;BME280;44614;54.356;10.100;2023-08-24T07:49:26;101557.84;;;20.41;80.72
58843;BME280;44614;54.356;10.100;2023-08-24T07:51:51;101556.84;;;20.62;81.44
58843;BME280;44614;54.356;10.100;2023-08-24T07:54:17;101553.88;;;20.84;78.71
58843;BME280;44614;54.356;10.100;2023-08-24T07:56:42;101548.88;;;21.02;77.54
58843;BME280;44614;54.356;10.100;2023-08-24T07:59:07;101547.22;;;21.11;77.48
58843;BME280;44614;54.356;10.100;2023-08-24T08:01:33;101549.72;;;21.17;75.11
58843;BME280;44614;54.356;10.100;2023-08-24T08:03:58;101548.06;;;21.16;74.50
58843;BME280;44614;54.356;10.100;2023-08-24T08:06:24;101548.59;;;21.13;76.12
58843;BME280;44614;54.356;10.100;2023-08-24T08:08:50;101550.09;;;21.41;76.25
58843;BME280;44614;54.356;10.100;2023-08-24T08:11:16;101543.34;;;21.63;71.92
58843;BME280;44614;54.356;10.100;2023-08-24T08:13:42;101541.69;;;21.77;71.06
58843;BME280;44614;54.356;10.100;2023-08-24T08:16:07;101462.63;;;21.26;68.03
58843;BME280;44614;54.356;10.100;2023-08-24T08:18:34;101528.84;;;21.71;67.49
58843;BME280;44614;54.356;10.100;2023-08-24T08:20:59;101539.16;;;21.86;68.35
58843;BME280;44614;54.356;10.100;2023-08-24T08:23:24;101536.94;;;21.83;70.00
58843;BME280;44614;54.356;10.100;2023-08-24T08:25:50;101541.38;;;22.14;69.78
58843;BME280;44614;54.356;10.100;2023-08-24T08:28:15;101528.72;;;22.27;65.07
58843;BME280;44614;54.356;10.100;2023-08-24T08:30:41;101528.75;;;22.07;64.26
58843;BME280;44614;54.356;10.100;2023-08-24T08:33:06;101534.09;;;21.93;66.32
58843;BME280;44614;54.356;10.100;2023-08-24T08:35:32;101539.66;;;22.08;66.13
58843;BME280;44614;54.356;10.100;2023-08-24T08:37:57;101540.25;;;21.90;66.26
58843;BME280;44614;54.356;10.100;2023-08-24T08:40:24;101549.78;;;21.89;65.47
58843;BME280;44614;54.356;10.100;2023-08-24T08:42:55;101540.28;;;21.85;64.10
58843;BME280;44614;54.356;10.100;2023-08-24T08:45:20;101534.38;;;21.97;66.38
58843;BME280;44614;54.356;10.100;2023-08-24T08:47:49;101532.97;;;22.14;66.19
58843;BME280;44614;54.356;10.100;2023-08-24T08:50:15;101523.97;;;22.33;65.55
58843;BME280;44614;54.356;10.100;2023-08-24T08:52:41;101526.75;;;22.33;64.55
58843;BME280;44614;54.356;10.100;2023-08-24T08:55:06;101533.69;;;22.46;65.95
58843;BME280;44614;54.356;10.100;2023-08-24T08:57:35;101521.56;;;22.66;63.86
58843;BME280;44614;54.356;10.100;2023-08-24T09:00:00;101514.97;;;22.96;66.33
58843;BME280;44614;54.356;10.100;2023-08-24T09:02:26;101517.06;;;23.19;63.16
58843;BME280;44614;54.356;10.100;2023-08-24T09:04:54;101512.28;;;23.54;64.54
58843;BME280;44614;54.356;10.100;2023-08-24T09:07:19;101519.66;;;23.79;61.61
58843;BME280;44614;54.356;10.100;2023-08-24T09:09:45;101524.81;;;23.96;58.49
58843;BME280;44614;54.356;10.100;2023-08-24T09:12:11;101521.06;;;23.76;59.28
58843;BME280;44614;54.356;10.100;2023-08-24T09:14:36;101525.19;;;23.84;57.87
58843;BME280;44614;54.356;10.100;2023-08-24T09:17:02;101512.06;;;23.79;59.17
58843;BME280;44614;54.356;10.100;2023-08-24T09:19:33;101516.28;;;23.77;59.60
58843;BME280;44614;54.356;10.100;2023-08-24T09:22:00;101508.63;;;23.88;60.67
58843;BME280;44614;54.356;10.100;2023-08-24T09:24:30;101502.72;;;23.89;58.60
58843;BME280;44614;54.356;10.100;2023-08-24T09:26:57;101504.31;;;23.37;57.55
58843;BME280;44614;54.356;10.100;2023-08-24T09:29:22;101501.19;;;23.09;59.49
58843;BME280;44614;54.356;10.100;2023-08-24T09:31:49;101502.63;;;23.02;60.10
58843;BME280;44614;54.356;10.100;2023-08-24T09:34:15;101509.25;;;23.16;60.53
58843;BME280;44614;54.356;10.100;2023-08-24T09:36:44;101501.56;;;23.61;62.94
58843;BME280;44614;54.356;10.100;2023-08-24T09:39:09;101503.06;;;23.82;59.95
58843;BME280;44614;54.356;10.100;2023-08-24T09:41:45;101501.81;;;23.65;58.91
58843;BME280;44614;54.356;10.100;2023-08-24T09:44:11;101490.66;;;23.59;56.88
58843;BME280;44614;54.356;10.100;2023-08-24T09:46:39;101483.72;;;23.52;57.88
58843;BME280;44614;54.356;10.100;2023-08-24T09:49:06;101490.41;;;23.56;58.28
58843;BME280;44614;54.356;10.100;2023-08-24T09:51:32;101489.63;;;23.79;59.79
58843;BME280;44614;54.356;10.100;2023-08-24T09:53:58;101490.19;;;24.05;60.97
58843;BME280;44614;54.356;10.100;2023-08-24T09:56:27;101491.88;;;24.06;58.93
58843;BME280;44614;54.356;10.100;2023-08-24T09:58:53;101494.66;;;24.06;60.86
58843;BME280;44614;54.356;10.100;2023-08-24T10:01:19;101485.59;;;24.15;59.78
58843;BME280;44614;54.356;10.100;2023-08-24T10:03:44;101489.47;;;24.19;60.59
58843;BME280;44614;54.356;10.100;2023-08-24T10:06:11;101498.53;;;24.11;56.33
58843;BME280;44614;54.356;10.100;2023-08-24T10:08:39;101493.06;;;24.00;59.46
58843;BME280;44614;54.356;10.100;2023-08-24T10:11:05;101492.81;;;24.21;58.83
58843;BME280;44614;54.356;10.100;2023-08-24T10:16:08;101485.56;;;24.20;56.17
58843;BME280;44614;54.356;10.100;2023-08-24T10:18:35;101486.66;;;24.19;56.71
58843;BME280;44614;54.356;10.100;2023-08-24T10:21:01;101488.16;;;24.35;58.81
58843;BME280;44614;54.356;10.100;2023-08-24T10:23:27;101486.25;;;24.54;57.08
58843;BME280;44614;54.356;10.100;2023-08-24T10:25:54;101487.09;;;24.74;56.73
58843;BME280;44614;54.356;10.100;2023-08-24T10:28:21;101490.50;;;24.71;56.28
58843;BME280;44614;54.356;10.100;2023-08-24T10:30:48;101484.34;;;24.50;52.67
58843;BME280;44614;54.356;10.100;2023-08-24T10:33:14;101472.97;;;24.60;54.58
58843;BME280;44614;54.356;10.100;2023-08-24T10:35:40;101480.25;;;24.61;53.65
58843;BME280;44614;54.356;10.100;2023-08-24T10:38:06;101479.59;;;24.88;55.99
58843;BME280;44614;54.356;10.100;2023-08-24T10:40:32;101484.53;;;24.96;53.25
58843;BME280;44614;54.356;10.100;2023-08-24T10:42:58;101490.63;;;24.61;50.75
58843;BME280;44614;54.356;10.100;2023-08-24T10:45:27;101487.09;;;24.55;53.90
58843;BME280;44614;54.356;10.100;2023-08-24T10:48:12;101463.41;;;24.37;55.23
58843;BME280;44614;54.356;10.100;2023-08-24T10:50:37;101470.19;;;24.36;52.01
58843;BME280;44614;54.356;10.100;2023-08-24T10:53:03;101448.25;;;24.38;55.43
58843;BME280;44614;54.356;10.100;2023-08-24T10:55:31;101433.38;;;24.62;53.97
58843;BME280;44614;54.356;10.100;2023-08-24T10:58:01;101442.38;;;24.59;54.80
58843;BME280;44614;54.356;10.100;2023-08-24T11:00:31;101450.34;;;24.70;53.66
58843;BME280;44614;54.356;10.100;2023-08-24T11:02:57;101446.16;;;24.68;54.04
58843;BME280;44614;54.356;10.100;2023-08-24T11:05:29;101445.88;;;24.88;55.38
58843;BME280;44614;54.356;10.100;2023-08-24T11:07:56;101447.81;;;25.07;54.58
58843;BME280;44614;54.356;10.100;2023-08-24T11:10:23;101437.94;;;25.28;54.01
58843;BME280;44614;54.356;10.100;2023-08-24T11:15:39;101420.19;;;25.46;54.53
58843;BME280;44614;54.356;10.100;2023-08-24T11:18:23;101430.16;;;25.52;52.25
58843;BME280;44614;54.356;10.100;2023-08-24T11:20:50;101419.63;;;25.44;51.49
58843;BME280;44614;54.356;10.100;2023-08-24T11:23:16;101418.97;;;25.20;52.68
58843;BME280;44614;54.356;10.100;2023-08-24T11:25:42;101424.38;;;24.97;50.65
58843;BME280;44614;54.356;10.100;2023-08-24T11:28:07;101399.59;;;25.18;54.72
58843;BME280;44614;54.356;10.100;2023-08-24T11:30:33;101390.59;;;25.35;53.91
58843;BME280;44614;54.356;10.100;2023-08-24T11:32:59;101392.75;;;25.24;48.79
58843;BME280;44614;54.356;10.100;2023-08-24T11:35:24;101381.28;;;25.02;51.57
58843;BME280;44614;54.356;10.100;2023-08-24T11:37:56;101375.69;;;25.02;53.45
58843;BME280;44614;54.356;10.100;2023-08-24T11:40:22;101360.69;;;25.39;53.92
58843;BME280;44614;54.356;10.100;2023-08-24T11:42:55;101363.81;;;25.24;50.88
58843;BME280;44614;54.356;10.100;2023-08-24T11:45:20;101362.47;;;25.35;53.53
58843;BME280;44614;54.356;10.100;2023-08-24T11:47:46;101346.97;;;25.38;52.49
58843;BME280;44614;54.356;10.100;2023-08-24T11:50:12;101336.44;;;25.43;52.57
58843;BME280;44614;54.356;10.100;2023-08-24T11:52:41;101321.56;;;25.57;52.36
58843;BME280;44614;54.356;10.100;2023-08-24T11:55:07;101329.25;;;25.51;52.26
58843;BME280;44614;54.356;10.100;2023-08-24T11:57:34;101322.81;;;25.50;50.96
58843;BME280;44614;54.356;10.100;2023-08-24T11:59:59;101324.47;;;25.65;53.19
58843;BME280;44614;54.356;10.100;2023-08-24T12:02:24;101325.72;;;25.73;50.91
58843;BME280;44614;54.356;10.100;2023-08-24T12:04:50;101320.00;;;25.92;52.99
58843;BME280;44614;54.356;10.100;2023-08-24T12:07:16;101305.09;;;25.77;50.22
58843;BME280;44614;54.356;10.100;2023-08-24T12:09:42;101305.31;;;25.95;53.60
58843;BME280;44614;54.356;10.100;2023-08-24T12:12:14;101304.16;;;25.82;48.55
58843;BME280;44614;54.356;10.100;2023-08-24T12:14:43;101310.41;;;25.79;50.98
58843;BME280;44614;54.356;10.100;2023-08-24T12:17:09;101310.66;;;26.19;51.78
58843;BME280;44614;54.356;10.100;2023-08-24T12:19:34;101299.31;;;26.46;50.15
58843;BME280;44614;54.356;10.100;2023-08-24T12:21:59;101278.13;;;26.71;51.12
58843;BME280;44614;54.356;10.100;2023-08-24T12:24:25;101279.38;;;26.88;49.37
58843;BME280;44614;54.356;10.100;2023-08-24T12:26:56;101276.75;;;27.14;48.79
58843;BME280;44614;54.356;10.100;2023-08-24T12:29:27;101276.78;;;27.31;48.88
58843;BME280;44614;54.356;10.100;2023-08-24T12:31:55;101280.44;;;27.32;44.93
58843;BME280;44614;54.356;10.100;2023-08-24T12:34:22;101274.59;;;26.66;45.93
58843;BME280;44614;54.356;10.100;2023-08-24T12:36:48;101274.59;;;26.43;47.85
58843;BME280;44614;54.356;10.100;2023-08-24T12:39:13;101277.13;;;26.67;48.81